RESULTADOS DE LA FECHA: Domingo 4 de Agosto, 2019 C2 | Ver Clase 2 | Ver Clase 3
FINAL C2
Puesto Nro Piloto Marca Vtas Tiempo Dif.
1 14 Ever FRANETOVICH FIAT PALIO 17 37:06.188
2 1 Nicolas POSCO FIESTA KINETIC 17 37:10.545 4.357
3 11 Gaston IANSA FIESTA KINETIC 17 37:11.117 4.929
4 120 Geronimo NUNEZ NISSAN MARCH 17 37:11.328 5.140
5 150 Damian MARKEL TOYOTA ETIOS 17 37:11.757 5.569
6 25 Sebastian PEREZ CHEVROLET ONIX 17 37:12.599 6.411
7 39 Alejandro VALDERREY FIAT PALIO 17 37:13.745 7.557
8 5 Gaston GRASSO TOYOTA ETIOS 17 37:14.099 7.911
9 18 Marcos FERNANDEZ NISSAN MARCH 17 37:15.652 9.464
10 54 Facundo ROTONDO FIESTA KINETIC 17 37:20.260 14.072
11 78 Alejandro WEIMANN TOYOTA ETIOS 17 37:21.094 14.906
12 65 Fernando GOMEZ FREDES PEUGEOT 208 17 37:21.243 15.055
13 141 Juan Pablo ROTONDO FIESTA KINETIC 17 37:32.918 26.730
14 21 Gabriel SCORDIA FIESTA KINETIC 17 37:51.819 45.631
15 69 Agustin HERRERA RENAULT CLIO 16 35:20.076 1 Vuelta
16 111 Joel GASSMANN FIESTA KINETIC 16 35:36.640 1 Vuelta
17 49 Juan Carlos POLINI RENAULT CLIO 14 31:36.421 3 Vueltas
124 Jorge POSSIEL TOYOTA ETIOS 11 23:51.283 6 Vueltas
43 Walter LOPEZ NISSAN MARCH 10 21:48.753 7 Vueltas
36 Alejo BORGIANI VW TREND 9 19:46.606 8 Vueltas
63 Renzo TESTA FIAT PALIO 7 14:13.993 10 Vueltas
3 Julian LEPPHAILLE TOYOTA ETIOS 6 12:14.343 11 Vueltas
13 Joel BORGOBELLO VW TREND 4 8:12.303 13 Vueltas
32 Sergio FERNANDEZ NISSAN MARCH

Auto Nro. 6 Excluido por reiteracion de maniobras peligrosas.

Auto Nro. 65 apercibido por maniobara peligrosa a los Autos Nro. 54 y 78

Descargas
Título Archivo Descarga
199-389-final-clase-2.xls
SERIES
PRIMERA SERIE C2
Puesto Nro Piloto Marca Vtas Tiempo Dif.
1 1 Nicolas POSCO FIESTA KINETIC 6 13:33.264
2 120 Geronimo NUNEZ NISSAN MARCH 6 13:33.588 0.324
3 18 Marcos FERNANDEZ NISSAN MARCH 6 13:33.880 0.616
4 3 Julian LEPPHAILLE TOYOTA ETIOS 6 13:35.587 2.323
5 43 Walter LOPEZ NISSAN MARCH 6 13:37.055 3.791
6 13 Joel BORGOBELLO VW TREND 6 13:38.713 5.449
7 32 Sergio FERNANDEZ NISSAN MARCH 6 13:39.121 5.857
8 150 Damian MARKEL TOYOTA ETIOS 6 13:40.926 7.662
9 78 Alejandro WEIMANN TOYOTA ETIOS 6 13:41.959 8.695
10 49 Juan Carlos POLINI RENAULT CLIO 6 13:43.585 10.321
11 21 Gabriel SCORDIA FIESTA KINETIC 6 13:43.872 10.608
12 124 Jorge POSSIEL TOYOTA ETIOS 6 13:43.879 10.615
13 39 Alejandro VALDERREY FIAT PALIO 6 14:21.515 48.251
73 Lucas BAGNERA TOYOTA ETIOS

Auto Nro. 124 Recargado con 6 puestos por maniobra peligrosa al Auto Nro. 21

Auto Nro. 43 Recagado con 5 segundos por falsa largada.

Descargas
Título Archivo Descarga
199-32-1-serie-clase-2.xls
SEGUNDA SERIE C2
Puesto Nro Piloto Marca Vtas Tiempo Dif.
1 69 Agustin HERRERA RENAULT CLIO 6 12:07.981
2 14 Ever FRANETOVICH FIAT PALIO 6 12:08.800 0.819
3 63 Renzo TESTA FIAT PALIO 6 12:09.949 1.968
4 25 Sebastian PEREZ CHEVROLET ONIX 6 12:11.609 3.628
5 11 Gaston IANSA FIESTA KINETIC 6 12:12.344 4.363
6 6 Miguel CIAURRO VW TREND 6 12:12.516 4.535
7 36 Alejo BORGIANI VW TREND 6 12:16.663 8.682
8 111 Joel GASSMANN FIESTA KINETIC 6 12:18.104 10.123
9 5 Gaston GRASSO TOYOTA ETIOS 6 12:18.105 10.124
10 54 Facundo ROTONDO FIESTA KINETIC 6 12:18.532 10.551
11 65 Fernando GOMEZ FREDES PEUGEOT 208 6 12:19.117 11.136
12 141 Juan Pablo ROTONDO FIESTA KINETIC 6 12:22.481 14.500
13 26 Damian KIRSTEIN PEUGEOT 208 5 10:14.507 1 Vuelta

Auto Nro. 5 Recargado con 2 puestos por maniobra peligrosa al Auto Nro. 111

Descargas
Título Archivo Descarga
199-698-2-serie-clase-2.xls
TERCERA SERIE C2
Puesto Nro Piloto Marca Vtas Tiempo Dif.
Descargas
CLASIFICACIONES
1° CLASIFICACIÓN C2
Puesto Nro Piloto Marca Vtas Tiempo Dif.
1 43 Walter LOPEZ NISSAN MARCH 1 1:57.925
2 69 Agustin HERRERA RENAULT CLIO 3 1:58.135 0.210
3 14 Ever FRANETOVICH FIAT PALIO 3 1:58.159 0.234
4 18 Marcos FERNANDEZ NISSAN MARCH 3 1:58.263 0.338
5 11 Gaston IANSA FIESTA KINETIC 3 1:58.343 0.418
6 1 Nicolas POSCO FIESTA KINETIC 3 1:58.498 0.573
7 120 Geronimo NUNEZ NISSAN MARCH 3 1:58.528 0.603
8 111 Joel GASSMANN FIESTA KINETIC 3 1:58.552 0.627
9 124 Jorge POSSIEL TOYOTA ETIOS 4 1:58.715 0.790
10 25 Sebastian PEREZ CHEVROLET ONIX 4 1:58.872 0.947
11 3 Julian LEPPHAILLE TOYOTA ETIOS 2 1:58.977 1.052
12 13 Joel BORGOBELLO VW TREND 3 1:59.037 1.112
13 73 Lucas BAGNERA TOYOTA ETIOS 4 1:59.098 1.173
14 5 Gaston GRASSO TOYOTA ETIOS 3 1:59.133 1.208
15 21 Gabriel SCORDIA FIESTA KINETIC 3 1:59.134 1.209
16 26 Damian KIRSTEIN PEUGEOT 208 3 1:59.197 1.272
17 39 Alejandro VALDERREY FIAT PALIO 4 1:59.213 1.288
18 36 Alejo BORGIANI VW TREND 3 1:59.290 1.365
19 63 Renzo TESTA FIAT PALIO 4 1:59.304 1.379
20 150 Damian MARKEL TOYOTA ETIOS 4 1:59.349 1.424
21 6 Miguel CIAURRO VW TREND 3 1:59.627 1.702
22 78 Alejandro WEIMANN TOYOTA ETIOS 3 2:00.093 2.168
23 54 Facundo ROTONDO FIESTA KINETIC 4 2:00.155 2.230
24 65 Fernando GOMEZ FREDES PEUGEOT 208 4 2:00.621 2.696
25 49 Juan Carlos POLINI RENAULT CLIO 4 2:00.666 2.741
26 141 Juan Pablo ROTONDO FIESTA KINETIC 1 3:42.044 1:44.119

Sin tiempos Auto Nro. 32

Descargas
Título Archivo Descarga
199-334-1-clasifica-clase-2.xls
2° CLASIFICACIÓN C2
Puesto Nro Piloto Marca Vtas Tiempo Dif.
1 63 Renzo TESTA FIAT PALIO 4 1:58.003
2 1 Nicolas POSCO FIESTA KINETIC 2 1:58.006 0.003
3 14 Ever FRANETOVICH FIAT PALIO 3 1:58.078 0.075
4 120 Geronimo NUNEZ NISSAN MARCH 3 1:58.086 0.083
5 43 Walter LOPEZ NISSAN MARCH 2 1:58.347 0.344
6 124 Jorge POSSIEL TOYOTA ETIOS 3 1:58.448 0.445
7 11 Gaston IANSA FIESTA KINETIC 2 1:58.547 0.544
8 21 Gabriel SCORDIA FIESTA KINETIC 4 1:58.563 0.560
9 5 Gaston GRASSO TOYOTA ETIOS 2 1:58.663 0.660
10 13 Joel BORGOBELLO VW TREND 2 1:58.793 0.790
11 18 Marcos FERNANDEZ NISSAN MARCH 3 1:58.911 0.908
12 25 Sebastian PEREZ CHEVROLET ONIX 3 1:59.011 1.008
13 54 Facundo ROTONDO FIESTA KINETIC 3 1:59.042 1.039
14 3 Julian LEPPHAILLE TOYOTA ETIOS 2 1:59.196 1.193
15 36 Alejo BORGIANI VW TREND 4 1:59.269 1.266
16 150 Damian MARKEL TOYOTA ETIOS 3 1:59.272 1.269
17 141 Juan Pablo ROTONDO FIESTA KINETIC 4 1:59.317 1.314
18 32 Sergio FERNANDEZ NISSAN MARCH 3 1:59.323 1.320
19 39 Alejandro VALDERREY FIAT PALIO 3 1:59.447 1.444
20 6 Miguel CIAURRO VW TREND 3 1:59.743 1.740
21 78 Alejandro WEIMANN TOYOTA ETIOS 4 2:00.093 2.090
22 65 Fernando GOMEZ FREDES PEUGEOT 208 3 2:00.328 2.325
23 49 Juan Carlos POLINI RENAULT CLIO 1 2:00.669 2.666
24 73 Lucas BAGNERA TOYOTA ETIOS 3 2:11.122 13.119
25 69 Agustin HERRERA RENAULT CLIO 2 2:44.366 46.363
26 26 Damian KIRSTEIN PEUGEOT 208 1 4:56.520 2:58.517

Auto Nro. 69 Retiro de la mejor vuelta por obstrucción en pista al Auto Nro. 3

Sin Tiempo Auto Nro. 111

Descargas
Título Archivo Descarga
199-323-2-clasifica-clase-2.xls
GENERAL CLASIFICACIÓN C2
Puesto Nro Piloto Marca Vtas Tiempo Dif.
1 43 Walter LOPEZ NISSAN MARCH 1:57.925
2 63 Renzo TESTA FIAT PALIO 1:58.003 0.078
3 1 Nicolas POSCO FIESTA KINETIC 1:58.006 0.081
4 14 Ever FRANETOVICH FIAT PALIO 1:58.078 0.153
5 120 Geronimo NUNEZ NISSAN MARCH 1:58.086 0.161
6 69 Agustin HERRERA RENAULT CLIO 1:58.135 0.210
7 18 Marcos FERNANDEZ NISSAN MARCH 1:58.263 0.338
8 11 Gaston IANSA FIESTA KINETIC 1:58.343 0.418
9 124 Jorge POSSIEL TOYOTA ETIOS 1:58.448 0.523
10 111 Joel GASSMANN FIESTA KINETIC 1:58.552 0.627
11 21 Gabriel SCORDIA FIESTA KINETIC 1:58.563 0.638
12 5 Gaston GRASSO TOYOTA ETIOS 1:58.663 0.738
13 13 Joel BORGOBELLO VW TREND 1:58.793 0.868
14 25 Sebastian PEREZ CHEVROLET ONIX 1:58.872 0.947
15 3 Julian LEPPHAILLE TOYOTA ETIOS 1:58.977 1.052
16 54 Facundo ROTONDO FIESTA KINETIC 1:59.042 1.117
17 73 Lucas BAGNERA TOYOTA ETIOS 1:59.098 1.173
18 26 Damian KIRSTEIN PEUGEOT 208 1:59.197 1.272
19 39 Alejandro VALDERREY FIAT PALIO 1:59.213 1.288
20 36 Alejo BORGIANI VW TREND 1:59.269 1.344
21 150 Damian MARKEL TOYOTA ETIOS 1:59.272 1.347
22 141 Juan Pablo ROTONDO FIESTA KINETIC 1:59.317 1.392
23 32 Sergio FERNANDEZ NISSAN MARCH 1:59.323 1.398
24 6 Miguel CIAURRO VW TREND 1:59.627 1.702
25 78 Alejandro WEIMANN TOYOTA ETIOS 2:00.093 2.168
26 65 Fernando GOMEZ FREDES PEUGEOT 208 2:00.328 2.403
27 49 Juan Carlos POLINI RENAULT CLIO 2:00.666 2.741
Descargas
ENTRENAMIENTOS
1° ENTRENAMIENTO C2
Puesto Nro Piloto Marca Vtas Tiempo Dif.
1 69 Agustin HERRERA RENAULT CLIO 10 1:58.657
2 43 Walter LOPEZ NISSAN MARCH 11 1:58.830 0.173
3 6 Miguel CIAURRO VW TREND 11 1:59.007 0.350
4 11 Gaston IANSA FIESTA KINETIC 10 1:59.291 0.634
5 14 Ever FRANETOVICH FIAT PALIO 9 1:59.424 0.767
6 1 Nicolas POSCO FIESTA KINETIC 9 1:59.475 0.818
7 120 Geronimo NUNEZ NISSAN MARCH 12 1:59.502 0.845
8 5 Gaston GRASSO TOYOTA ETIOS 11 1:59.672 1.015
9 124 Jorge POSSIEL TOYOTA ETIOS 6 1:59.851 1.194
10 36 Alejo BORGIANI VW TREND 10 2:00.113 1.456
11 18 Marcos FERNANDEZ NISSAN MARCH 12 2:00.214 1.557
12 111 Joel GASSMANN FIESTA KINETIC 10 2:00.318 1.661
13 63 Renzo TESTA FIAT PALIO 10 2:00.333 1.676
14 32 Sergio FERNANDEZ NISSAN MARCH 9 2:00.368 1.711
15 49 Juan Carlos POLINI RENAULT CLIO 10 2:00.554 1.897
16 54 Facundo ROTONDO FIESTA KINETIC 10 2:00.584 1.927
17 39 Alejandro VALDERREY FIAT PALIO 9 2:00.681 2.024
18 141 Juan Pablo ROTONDO FIESTA KINETIC 11 2:00.695 2.038
19 150 Damian MARKEL TOYOTA ETIOS 9 2:00.767 2.110
20 25 Sebastian PEREZ CHEVROLET ONIX 9 2:00.814 2.157
21 21 Gabriel SCORDIA FIESTA KINETIC 9 2:00.944 2.287
22 26 Damian KIRSTEIN PEUGEOT 208 10 2:00.981 2.324
23 3 Julian LEPPHAILLE TOYOTA ETIOS 10 2:01.147 2.490
24 73 Lucas BAGNERA TOYOTA ETIOS 8 2:01.149 2.492
25 13 Joel BORGOBELLO VW TREND 10 2:01.231 2.574
26 65 Fernando GOMEZ FREDES PEUGEOT 208 9 2:01.774 3.117
27 78 Alejandro WEIMANN TOYOTA ETIOS 8 2:02.499 3.842
Descargas
Título Archivo Descarga
199-348-1-entre-clase-2.xls
2° ENTRENAMIENTO C2
Puesto Nro Piloto Marca Vtas Tiempo Dif.
1 43 Walter LOPEZ NISSAN MARCH 9 1:58.304
2 18 Marcos FERNANDEZ NISSAN MARCH 11 1:58.565 0.261
3 1 Nicolas POSCO FIESTA KINETIC 9 1:58.613 0.309
4 63 Renzo TESTA FIAT PALIO 8 1:58.627 0.323
5 14 Ever FRANETOVICH FIAT PALIO 7 1:58.681 0.377
6 5 Gaston GRASSO TOYOTA ETIOS 11 1:58.772 0.468
7 124 Jorge POSSIEL TOYOTA ETIOS 7 1:58.787 0.483
8 73 Lucas BAGNERA TOYOTA ETIOS 8 1:58.901 0.597
9 21 Gabriel SCORDIA FIESTA KINETIC 8 1:58.909 0.605
10 6 Miguel CIAURRO VW TREND 9 1:59.026 0.722
11 13 Joel BORGOBELLO VW TREND 9 1:59.068 0.764
12 3 Julian LEPPHAILLE TOYOTA ETIOS 10 1:59.267 0.963
13 11 Gaston IANSA FIESTA KINETIC 7 1:59.385 1.081
14 69 Agustin HERRERA RENAULT CLIO 10 1:59.456 1.152
15 25 Sebastian PEREZ CHEVROLET ONIX 10 1:59.537 1.233
16 49 Juan Carlos POLINI RENAULT CLIO 11 1:59.674 1.370
17 111 Joel GASSMANN FIESTA KINETIC 9 1:59.817 1.513
18 120 Geronimo NUNEZ NISSAN MARCH 11 1:59.827 1.523
19 36 Alejo BORGIANI VW TREND 10 1:59.864 1.560
20 141 Juan Pablo ROTONDO FIESTA KINETIC 11 1:59.882 1.578
21 32 Sergio FERNANDEZ NISSAN MARCH 7 1:59.985 1.681
22 54 Facundo ROTONDO FIESTA KINETIC 10 2:00.024 1.720
23 26 Damian KIRSTEIN PEUGEOT 208 8 2:00.059 1.755
24 65 Fernando GOMEZ FREDES PEUGEOT 208 8 2:00.063 1.759
25 39 Alejandro VALDERREY FIAT PALIO 8 2:00.119 1.815
26 78 Alejandro WEIMANN TOYOTA ETIOS 9 2:02.077 3.773

Sin Tiempo Auto Nro. 150

Descargas
Título Archivo Descarga
199-924-2-entre-clase-2.xls
GENERAL ENTRENAMIENTO C2
Puesto Nro Piloto Marca Vtas Tiempo Dif.
1 43 Walter LOPEZ NISSAN MARCH 1:58.304
2 18 Marcos FERNANDEZ NISSAN MARCH 1:58.565 0.261
3 1 Nicolas POSCO FIESTA KINETIC 1:58.613 0.309
4 63 Renzo TESTA FIAT PALIO 1:58.627 0.323
5 69 Agustin HERRERA RENAULT CLIO 1:58.657 0.353
6 14 Ever FRANETOVICH FIAT PALIO 1:58.681 0.377
7 5 Gaston GRASSO TOYOTA ETIOS 1:58.772 0.468
8 124 Jorge POSSIEL TOYOTA ETIOS 1:58.787 0.483
9 73 Lucas BAGNERA TOYOTA ETIOS 1:58.901 0.597
10 21 Gabriel SCORDIA FIESTA KINETIC 1:58.909 0.605
11 6 Miguel CIAURRO VW TREND 1:59.007 0.703
12 13 Joel BORGOBELLO VW TREND 1:59.068 0.764
13 3 Julian LEPPHAILLE TOYOTA ETIOS 1:59.267 0.963
14 11 Gaston IANSA FIESTA KINETIC 1:59.291 0.987
15 120 Geronimo NUNEZ NISSAN MARCH 1:59.502 1.198
16 25 Sebastian PEREZ CHEVROLET ONIX 1:59.537 1.233
17 49 Juan Carlos POLINI RENAULT CLIO 1:59.674 1.370
18 111 Joel GASSMANN FIESTA KINETIC 1:59.817 1.513
19 36 Alejo BORGIANI VW TREND 1:59.864 1.560
20 141 Juan Pablo ROTONDO FIESTA KINETIC 1:59.882 1.578
21 32 Sergio FERNANDEZ NISSAN MARCH 1:59.985 1.681
22 54 Facundo ROTONDO FIESTA KINETIC 2:00.024 1.720
23 26 Damian KIRSTEIN PEUGEOT 208 2:00.059 1.755
24 65 Fernando GOMEZ FREDES PEUGEOT 208 2:00.063 1.759
25 39 Alejandro VALDERREY FIAT PALIO 2:00.119 1.815
26 150 Damian MARKEL TOYOTA ETIOS 2:00.767 2.463
27 78 Alejandro WEIMANN TOYOTA ETIOS 2:02.077 3.773
Descargas
CALENDARIO AÑO 2020
Nro Fecha Circuito C2 C3
1 23/02 Bahia Blanca
2 15/03 A confirmar
3 12/04 A confirmar
4 17/05 A confirmar
5 14/06 A confirmar
6 05/07 A confirmar
7 09/08 A confirmar
8 06/09 A confirmar
9 27/09 A confirmar
10 18/10 A confirmar
11 15/11 A confirmar
12 13/12 A confirmar